sensor_id;sensor_type;location;lat;lon;timestamp;temperature;humidity
14357;DHT22;7262;48.764;9.166;2023-02-11T00:00:15;-0.80;99.90
14357;DHT22;7262;48.764;9.166;2023-02-11T00:02:42;-0.90;99.90
14357;DHT22;7262;48.764;9.166;2023-02-11T00:05:10;-0.90;99.90
14357;DHT22;7262;48.764;9.166;2023-02-11T00:07:37;-0.90;99.90
14357;DHT22;7262;48.764;9.166;2023-02-11T00:10:04;-0.90;99.90
14357;DHT22;7262;48.764;9.166;2023-02-11T00:12:34;-0.90;99.90
14357;DHT22;7262;48.764;9.166;2023-02-11T00:15:02;-0.90;99.90
14357;DHT22;7262;48.764;9.166;2023-02-11T00:17:29;-0.90;99.90
14357;DHT22;7262;48.764;9.166;2023-02-11T00:19:55;-0.90;99.90
14357;DHT22;7262;48.764;9.166;2023-02-11T00:22:23;-0.80;99.90
14357;DHT22;7262;48.764;9.166;2023-02-11T00:24:50;-0.80;99.90
14357;DHT22;7262;48.764;9.166;2023-02-11T00:27:17;-0.80;99.90
14357;DHT22;7262;48.764;9.166;2023-02-11T00:29:44;-0.80;99.90
14357;DHT22;7262;48.764;9.166;2023-02-11T00:32:11;-0.90;99.90
14357;DHT22;7262;48.764;9.166;2023-02-11T00:34:38;-0.90;99.90
14357;DHT22;7262;48.764;9.166;2023-02-11T00:37:05;-1.00;99.90
14357;DHT22;7262;48.764;9.166;2023-02-11T00:39:33;-1.00;99.90
14357;DHT22;7262;48.764;9.166;2023-02-11T00:41:59;-1.00;99.90
14357;DHT22;7262;48.764;9.166;2023-02-11T00:44:26;-1.10;99.90
14357;DHT22;7262;48.764;9.166;2023-02-11T00:46:53;-1.10;99.90
14357;DHT22;7262;48.764;9.166;2023-02-11T00:49:19;-1.10;99.90
14357;DHT22;7262;48.764;9.166;2023-02-11T00:51:46;-1.10;99.90
14357;DHT22;7262;48.764;9.166;2023-02-11T00:54:13;-1.00;99.90
14357;DHT22;7262;48.764;9.166;2023-02-11T00:56:41;-1.10;99.90
14357;DHT22;7262;48.764;9.166;2023-02-11T00:59:08;-1.10;99.90
14357;DHT22;7262;48.764;9.166;2023-02-11T01:01:34;-1.20;99.90
14357;DHT22;7262;48.764;9.166;2023-02-11T01:04:01;-1.20;99.90
14357;DHT22;7262;48.764;9.166;2023-02-11T01:06:29;-1.20;99.90
14357;DHT22;7262;48.764;9.166;2023-02-11T01:08:56;-1.20;99.90
14357;DHT22;7262;48.764;9.166;2023-02-11T01:11:23;-1.20;99.90
14357;DHT22;7262;48.764;9.166;2023-02-11T01:13:51;-1.20;99.90
14357;DHT22;7262;48.764;9.166;2023-02-11T01:16:18;-1.30;99.90
14357;DHT22;7262;48.764;9.166;2023-02-11T01:18:45;-1.30;99.90
14357;DHT22;7262;48.764;9.166;2023-02-11T01:21:12;-1.30;99.90
14357;DHT22;7262;48.764;9.166;2023-02-11T01:23:39;-1.30;99.90
14357;DHT22;7262;48.764;9.166;2023-02-11T01:26:06;-1.20;99.90
14357;DHT22;7262;48.764;9.166;2023-02-11T01:28:33;-1.20;99.90
14357;DHT22;7262;48.764;9.166;2023-02-11T01:31:01;-1.20;99.90
14357;DHT22;7262;48.764;9.166;2023-02-11T01:33:28;-1.30;99.90
14357;DHT22;7262;48.764;9.166;2023-02-11T01:35:58;-1.30;99.90
14357;DHT22;7262;48.764;9.166;2023-02-11T01:38:25;-1.30;99.90
14357;DHT22;7262;48.764;9.166;2023-02-11T01:40:53;-1.20;99.90
14357;DHT22;7262;48.764;9.166;2023-02-11T01:43:20;-1.20;99.90
14357;DHT22;7262;48.764;9.166;2023-02-11T01:46:01;-1.20;99.90
14357;DHT22;7262;48.764;9.166;2023-02-11T01:48:31;-1.20;99.90
14357;DHT22;7262;48.764;9.166;2023-02-11T01:51:03;-1.20;99.90
14357;DHT22;7262;48.764;9.166;2023-02-11T01:53:31;-1.20;99.90
14357;DHT22;7262;48.764;9.166;2023-02-11T01:56:17;-1.20;99.90
14357;DHT22;7262;48.764;9.166;2023-02-11T01:59:03;-1.20;99.90
14357;DHT22;7262;48.764;9.166;2023-02-11T02:01:32;-1.30;99.90
14357;DHT22;7262;48.764;9.166;2023-02-11T02:04:00;-1.20;99.90
14357;DHT22;7262;48.764;9.166;2023-02-11T02:06:29;-1.30;99.90
14357;DHT22;7262;48.764;9.166;2023-02-11T02:08:59;-1.30;99.90
14357;DHT22;7262;48.764;9.166;2023-02-11T02:11:27;-1.40;99.90
14357;DHT22;7262;48.764;9.166;2023-02-11T02:13:54;-1.40;99.90
14357;DHT22;7262;48.764;9.166;2023-02-11T02:16:23;-1.40;99.90
14357;DHT22;7262;48.764;9.166;2023-02-11T02:18:55;-1.40;99.90
14357;DHT22;7262;48.764;9.166;2023-02-11T02:21:43;-1.40;99.90
14357;DHT22;7262;48.764;9.166;2023-02-11T02:27:14;-1.40;99.90
14357;DHT22;7262;48.764;9.166;2023-02-11T02:29:49;-1.40;99.90
14357;DHT22;7262;48.764;9.166;2023-02-11T02:32:33;-1.30;99.90
14357;DHT22;7262;48.764;9.166;2023-02-11T02:35:03;-1.30;99.90
14357;DHT22;7262;48.764;9.166;2023-02-11T02:37:36;-1.30;99.90
14357;DHT22;7262;48.764;9.166;2023-02-11T02:40:05;-1.30;99.90
14357;DHT22;7262;48.764;9.166;2023-02-11T02:42:35;-1.20;99.90
14357;DHT22;7262;48.764;9.166;2023-02-11T02:45:02;-1.20;99.90
14357;DHT22;7262;48.764;9.166;2023-02-11T02:47:29;-1.30;99.90
14357;DHT22;7262;48.764;9.166;2023-02-11T02:49:58;-1.30;99.90
14357;DHT22;7262;48.764;9.166;2023-02-11T02:52:28;-1.30;99.90
14357;DHT22;7262;48.764;9.166;2023-02-11T02:55:09;-1.30;99.90
14357;DHT22;7262;48.764;9.166;2023-02-11T02:57:41;-1.20;99.90
14357;DHT22;7262;48.764;9.166;2023-02-11T03:00:12;-1.20;99.90
14357;DHT22;7262;48.764;9.166;2023-02-11T03:02:41;-1.20;99.90
14357;DHT22;7262;48.764;9.166;2023-02-11T03:05:16;-1.20;99.90
14357;DHT22;7262;48.764;9.166;2023-02-11T03:07:45;-1.20;99.90
14357;DHT22;7262;48.764;9.166;2023-02-11T03:10:15;-1.30;99.90
14357;DHT22;7262;48.764;9.166;2023-02-11T03:12:43;-1.20;99.90
14357;DHT22;7262;48.764;9.166;2023-02-11T03:15:11;-1.20;99.90
14357;DHT22;7262;48.764;9.166;2023-02-11T03:17:40;-1.20;99.90
14357;DHT22;7262;48.764;9.166;2023-02-11T03:20:08;-1.20;99.90
14357;DHT22;7262;48.764;9.166;2023-02-11T03:22:38;-1.30;99.90
14357;DHT22;7262;48.764;9.166;2023-02-11T03:25:07;-1.30;99.90
14357;DHT22;7262;48.764;9.166;2023-02-11T03:27:37;-1.30;99.90
14357;DHT22;7262;48.764;9.166;2023-02-11T03:30:06;-1.30;99.90
14357;DHT22;7262;48.764;9.166;2023-02-11T03:32:37;-1.30;99.90
14357;DHT22;7262;48.764;9.166;2023-02-11T03:35:06;-1.30;99.90
14357;DHT22;7262;48.764;9.166;2023-02-11T03:37:35;-1.30;99.90
14357;DHT22;7262;48.764;9.166;2023-02-11T03:40:09;-1.20;99.90
14357;DHT22;7262;48.764;9.166;2023-02-11T03:42:37;-1.30;99.90
14357;DHT22;7262;48.764;9.166;2023-02-11T03:45:07;-1.30;99.90
14357;DHT22;7262;48.764;9.166;2023-02-11T03:47:35;-1.30;99.90
14357;DHT22;7262;48.764;9.166;2023-02-11T03:50:04;-1.30;99.90
14357;DHT22;7262;48.764;9.166;2023-02-11T03:52:32;-1.30;99.90
14357;DHT22;7262;48.764;9.166;2023-02-11T03:54:59;-1.30;99.90
14357;DHT22;7262;48.764;9.166;2023-02-11T03:57:29;-1.20;99.90
14357;DHT22;7262;48.764;9.166;2023-02-11T03:59:58;-1.30;99.90
14357;DHT22;7262;48.764;9.166;2023-02-11T04:02:26;-1.30;99.90
14357;DHT22;7262;48.764;9.166;2023-02-11T04:04:53;-1.20;99.90
14357;DHT22;7262;48.764;9.166;2023-02-11T04:07:20;-1.10;99.90
14357;DHT22;7262;48.764;9.166;2023-02-11T04:09:47;-1.10;99.90
14357;DHT22;7262;48.764;9.166;2023-02-11T04:12:13;-1.10;99.90
14357;DHT22;7262;48.764;9.166;2023-02-11T04:14:42;-1.10;99.90
14357;DHT22;7262;48.764;9.166;2023-02-11T04:17:09;-1.00;99.90
14357;DHT22;7262;48.764;9.166;2023-02-11T04:19:36;-1.00;99.90
14357;DHT22;7262;48.764;9.166;2023-02-11T04:22:02;-0.90;99.90
14357;DHT22;7262;48.764;9.166;2023-02-11T04:24:30;-0.80;99.90
14357;DHT22;7262;48.764;9.166;2023-02-11T04:26:56;-0.80;99.90
14357;DHT22;7262;48.764;9.166;2023-02-11T04:29:23;-0.70;99.90
14357;DHT22;7262;48.764;9.166;2023-02-11T04:31:53;-0.70;99.90
14357;DHT22;7262;48.764;9.166;2023-02-11T04:34:20;-0.60;99.90
14357;DHT22;7262;48.764;9.166;2023-02-11T04:36:48;-0.50;99.90
14357;DHT22;7262;48.764;9.166;2023-02-11T04:39:15;-0.40;99.90
14357;DHT22;7262;48.764;9.166;2023-02-11T04:41:43;-0.40;99.90
14357;DHT22;7262;48.764;9.166;2023-02-11T04:44:10;-0.40;99.90
14357;DHT22;7262;48.764;9.166;2023-02-11T04:46:37;-0.40;99.90
14357;DHT22;7262;48.764;9.166;2023-02-11T04:49:05;-0.50;99.90
14357;DHT22;7262;48.764;9.166;2023-02-11T04:51:32;-0.40;99.90
14357;DHT22;7262;48.764;9.166;2023-02-11T04:53:59;-0.30;99.90
14357;DHT22;7262;48.764;9.166;2023-02-11T04:56:26;-0.20;99.90
14357;DHT22;7262;48.764;9.166;2023-02-11T04:58:53;-0.20;99.90
14357;DHT22;7262;48.764;9.166;2023-02-11T05:01:19;-0.10;99.90
14357;DHT22;7262;48.764;9.166;2023-02-11T05:03:49;0.00;99.90
14357;DHT22;7262;48.764;9.166;2023-02-11T05:06:18;0.10;99.90
14357;DHT22;7262;48.764;9.166;2023-02-11T05:08:45;0.10;99.90
14357;DHT22;7262;48.764;9.166;2023-02-11T05:11:14;0.20;99.90
14357;DHT22;7262;48.764;9.166;2023-02-11T05:13:41;0.20;99.90
14357;DHT22;7262;48.764;9.166;2023-02-11T05:16:08;0.20;99.90
14357;DHT22;7262;48.764;9.166;2023-02-11T05:18:36;0.30;99.90
14357;DHT22;7262;48.764;9.166;2023-02-11T05:21:04;0.30;99.90
14357;DHT22;7262;48.764;9.166;2023-02-11T05:23:47;0.30;99.90
14357;DHT22;7262;48.764;9.166;2023-02-11T05:26:14;0.40;99.90
14357;DHT22;7262;48.764;9.166;2023-02-11T05:28:41;0.50;99.90
14357;DHT22;7262;48.764;9.166;2023-02-11T05:31:08;0.50;99.90
14357;DHT22;7262;48.764;9.166;2023-02-11T05:33:36;0.50;99.90
14357;DHT22;7262;48.764;9.166;2023-02-11T05:36:04;0.50;99.90
14357;DHT22;7262;48.764;9.166;2023-02-11T05:38:32;0.60;99.90
14357;DHT22;7262;48.764;9.166;2023-02-11T05:41:02;0.70;99.90
14357;DHT22;7262;48.764;9.166;2023-02-11T05:43:29;0.70;99.90
14357;DHT22;7262;48.764;9.166;2023-02-11T05:45:56;0.90;99.90
14357;DHT22;7262;48.764;9.166;2023-02-11T05:48:23;0.90;99.90
14357;DHT22;7262;48.764;9.166;2023-02-11T05:50:50;0.90;99.90
14357;DHT22;7262;48.764;9.166;2023-02-11T05:53:19;1.00;99.90
14357;DHT22;7262;48.764;9.166;2023-02-11T05:55:46;1.00;99.90
14357;DHT22;7262;48.764;9.166;2023-02-11T05:58:14;1.00;99.90
14357;DHT22;7262;48.764;9.166;2023-02-11T06:00:41;1.00;99.90
14357;DHT22;7262;48.764;9.166;2023-02-11T06:03:08;1.00;99.90
14357;DHT22;7262;48.764;9.166;2023-02-11T06:05:35;1.10;99.90
14357;DHT22;7262;48.764;9.166;2023-02-11T06:08:02;1.10;99.90
14357;DHT22;7262;48.764;9.166;2023-02-11T06:10:29;1.20;99.90
14357;DHT22;7262;48.764;9.166;2023-02-11T06:12:58;1.20;99.90
14357;DHT22;7262;48.764;9.166;2023-02-11T06:15:29;1.20;99.90
14357;DHT22;7262;48.764;9.166;2023-02-11T06:17:56;1.20;99.90
14357;DHT22;7262;48.764;9.166;2023-02-11T06:20:23;1.20;99.90
14357;DHT22;7262;48.764;9.166;2023-02-11T06:22:51;1.20;99.90
14357;DHT22;7262;48.764;9.166;2023-02-11T06:25:18;1.20;99.90
14357;DHT22;7262;48.764;9.166;2023-02-11T06:27:45;1.30;99.90
14357;DHT22;7262;48.764;9.166;2023-02-11T06:30:12;1.20;99.90
14357;DHT22;7262;48.764;9.166;2023-02-11T06:32:41;1.30;99.90
14357;DHT22;7262;48.764;9.166;2023-02-11T06:35:08;1.30;99.90
14357;DHT22;7262;48.764;9.166;2023-02-11T06:37:35;1.20;99.90
14357;DHT22;7262;48.764;9.166;2023-02-11T06:40:02;1.30;99.90
14357;DHT22;7262;48.764;9.166;2023-02-11T06:42:29;1.40;99.90
14357;DHT22;7262;48.764;9.166;2023-02-11T06:44:55;1.20;99.90
14357;DHT22;7262;48.764;9.166;2023-02-11T06:47:22;1.20;99.90
14357;DHT22;7262;48.764;9.166;2023-02-11T06:49:51;1.10;99.90
14357;DHT22;7262;48.764;9.166;2023-02-11T06:52:18;1.20;99.90
14357;DHT22;7262;48.764;9.166;2023-02-11T06:54:45;1.10;99.90
14357;DHT22;7262;48.764;9.166;2023-02-11T06:57:12;1.20;99.90
14357;DHT22;7262;48.764;9.166;2023-02-11T06:59:40;1.20;99.90
14357;DHT22;7262;48.764;9.166;2023-02-11T07:02:08;1.20;99.90
14357;DHT22;7262;48.764;9.166;2023-02-11T07:04:36;1.30;99.90
14357;DHT22;7262;48.764;9.166;2023-02-11T07:07:06;1.30;99.90
14357;DHT22;7262;48.764;9.166;2023-02-11T07:09:33;1.30;99.90
14357;DHT22;7262;48.764;9.166;2023-02-11T07:12:02;1.30;99.90
14357;DHT22;7262;48.764;9.166;2023-02-11T07:14:29;1.30;99.90
14357;DHT22;7262;48.764;9.166;2023-02-11T07:16:57;1.20;99.90
14357;DHT22;7262;48.764;9.166;2023-02-11T07:19:25;1.30;99.90
14357;DHT22;7262;48.764;9.166;2023-02-11T07:21:52;1.30;99.90
14357;DHT22;7262;48.764;9.166;2023-02-11T07:24:23;1.40;99.90
14357;DHT22;7262;48.764;9.166;2023-02-11T07:26:50;1.30;99.90
14357;DHT22;7262;48.764;9.166;2023-02-11T07:29:20;1.50;99.90
14357;DHT22;7262;48.764;9.166;2023-02-11T07:31:56;1.50;99.90
14357;DHT22;7262;48.764;9.166;2023-02-11T07:34:23;1.60;99.90
14357;DHT22;7262;48.764;9.166;2023-02-11T07:36:50;1.70;99.90
14357;DHT22;7262;48.764;9.166;2023-02-11T07:39:17;1.80;99.90
14357;DHT22;7262;48.764;9.166;2023-02-11T07:41:47;1.90;99.90
14357;DHT22;7262;48.764;9.166;2023-02-11T07:44:14;2.10;99.90
14357;DHT22;7262;48.764;9.166;2023-02-11T07:46:41;2.20;99.90
14357;DHT22;7262;48.764;9.166;2023-02-11T07:49:09;2.30;99.90
14357;DHT22;7262;48.764;9.166;2023-02-11T07:51:36;2.40;99.90
14357;DHT22;7262;48.764;9.166;2023-02-11T07:54:04;2.40;99.90
14357;DHT22;7262;48.764;9.166;2023-02-11T07:56:33;2.40;99.90
14357;DHT22;7262;48.764;9.166;2023-02-11T07:59:02;2.40;99.90
14357;DHT22;7262;48.764;9.166;2023-02-11T08:01:29;2.40;99.90
14357;DHT22;7262;48.764;9.166;2023-02-11T08:03:56;2.40;99.90
14357;DHT22;7262;48.764;9.166;2023-02-11T08:06:24;2.60;99.90
14357;DHT22;7262;48.764;9.166;2023-02-11T08:08:51;2.60;99.90
14357;DHT22;7262;48.764;9.166;2023-02-11T08:11:19;2.70;99.90
14357;DHT22;7262;48.764;9.166;2023-02-11T08:13:46;2.70;99.90
14357;DHT22;7262;48.764;9.166;2023-02-11T08:16:17;2.70;99.90
14357;DHT22;7262;48.764;9.166;2023-02-11T08:18:47;2.80;99.90
14357;DHT22;7262;48.764;9.166;2023-02-11T08:21:14;2.90;99.90
14357;DHT22;7262;48.764;9.166;2023-02-11T08:26:17;3.20;99.90
14357;DHT22;7262;48.764;9.166;2023-02-11T08:28:48;3.40;99.90
14357;DHT22;7262;48.764;9.166;2023-02-11T08:31:18;3.50;99.90
14357;DHT22;7262;48.764;9.166;2023-02-11T08:33:45;3.70;99.90
14357;DHT22;7262;48.764;9.166;2023-02-11T08:36:13;3.90;99.90
14357;DHT22;7262;48.764;9.166;2023-02-11T08:38:40;4.00;99.90
14357;DHT22;7262;48.764;9.166;2023-02-11T08:41:08;4.20;99.90
14357;DHT22;7262;48.764;9.166;2023-02-11T08:43:35;4.40;99.90
14357;DHT22;7262;48.764;9.166;2023-02-11T08:46:06;4.40;99.90
14357;DHT22;7262;48.764;9.166;2023-02-11T08:48:34;4.40;99.90
14357;DHT22;7262;48.764;9.166;2023-02-11T08:51:04;4.50;99.90
14357;DHT22;7262;48.764;9.166;2023-02-11T08:53:31;4.30;99.90
14357;DHT22;7262;48.764;9.166;2023-02-11T08:55:58;4.20;99.90
14357;DHT22;7262;48.764;9.166;2023-02-11T08:58:25;4.20;99.90
14357;DHT22;7262;48.764;9.166;2023-02-11T09:00:52;4.20;99.90
14357;DHT22;7262;48.764;9.166;2023-02-11T09:03:19;4.30;99.90
14357;DHT22;7262;48.764;9.166;2023-02-11T09:05:48;4.40;99.90
14357;DHT22;7262;48.764;9.166;2023-02-11T09:08:17;4.50;99.90
14357;DHT22;7262;48.764;9.166;2023-02-11T09:10:47;4.70;99.90
14357;DHT22;7262;48.764;9.166;2023-02-11T09:13:14;4.80;99.90
14357;DHT22;7262;48.764;9.166;2023-02-11T09:15:43;4.90;99.90
14357;DHT22;7262;48.764;9.166;2023-02-11T09:18:10;5.20;99.90
14357;DHT22;7262;48.764;9.166;2023-02-11T09:20:37;5.30;99.90
14357;DHT22;7262;48.764;9.166;2023-02-11T09:23:05;5.30;99.90
14357;DHT22;7262;48.764;9.166;2023-02-11T09:25:32;5.40;99.90
14357;DHT22;7262;48.764;9.166;2023-02-11T09:28:02;5.50;99.90
14357;DHT22;7262;48.764;9.166;2023-02-11T09:30:29;5.60;99.90
14357;DHT22;7262;48.764;9.166;2023-02-11T09:32:56;5.70;99.90
14357;DHT22;7262;48.764;9.166;2023-02-11T09:35:23;5.80;99.90
14357;DHT22;7262;48.764;9.166;2023-02-11T09:37:50;5.90;99.90
14357;DHT22;7262;48.764;9.166;2023-02-11T09:40:18;6.10;99.90
14357;DHT22;7262;48.764;9.166;2023-02-11T09:42:47;6.10;99.90
14357;DHT22;7262;48.764;9.166;2023-02-11T09:45:16;6.30;99.90
14357;DHT22;7262;48.764;9.166;2023-02-11T09:47:53;6.40;99.90
14357;DHT22;7262;48.764;9.166;2023-02-11T09:50:22;6.40;99.90
14357;DHT22;7262;48.764;9.166;2023-02-11T09:52:55;6.50;99.90
14357;DHT22;7262;48.764;9.166;2023-02-11T09:55:24;6.50;99.90
14357;DHT22;7262;48.764;9.166;2023-02-11T09:57:52;6.60;99.90
14357;DHT22;7262;48.764;9.166;2023-02-11T10:00:20;6.60;99.90
14357;DHT22;7262;48.764;9.166;2023-02-11T10:03:00;6.90;99.90
14357;DHT22;7262;48.764;9.166;2023-02-11T10:05:33;6.80;99.90
14357;DHT22;7262;48.764;9.166;2023-02-11T10:08:04;7.10;99.90
14357;DHT22;7262;48.764;9.166;2023-02-11T10:10:43;7.40;99.90
14357;DHT22;7262;48.764;9.166;2023-02-11T10:13:23;7.50;99.90
14357;DHT22;7262;48.764;9.166;2023-02-11T10:15:56;7.60;99.90
14357;DHT22;7262;48.764;9.166;2023-02-11T10:18:33;7.70;99.90
14357;DHT22;7262;48.764;9.166;2023-02-11T10:21:05;7.80;99.90
14357;DHT22;7262;48.764;9.166;2023-02-11T10:23:36;7.70;99.90
14357;DHT22;7262;48.764;9.166;2023-02-11T10:26:15;7.60;99.90
14357;DHT22;7262;48.764;9.166;2023-02-11T10:28:43;7.60;99.90
14357;DHT22;7262;48.764;9.166;2023-02-11T10:31:12;7.50;99.90
14357;DHT22;7262;48.764;9.166;2023-02-11T10:33:43;7.40;99.90
14357;DHT22;7262;48.764;9.166;2023-02-11T10:36:12;7.50;99.90
14357;DHT22;7262;48.764;9.166;2023-02-11T10:38:39;7.60;99.90
14357;DHT22;7262;48.764;9.166;2023-02-11T10:41:08;7.60;99.90
14357;DHT22;7262;48.764;9.166;2023-02-11T10:43:43;7.80;99.90
14357;DHT22;7262;48.764;9.166;2023-02-11T10:46:13;8.10;99.90
14357;DHT22;7262;48.764;9.166;2023-02-11T10:48:42;8.30;99.90
14357;DHT22;7262;48.764;9.166;2023-02-11T10:51:23;8.10;99.90
14357;DHT22;7262;48.764;9.166;2023-02-11T10:53:57;7.70;99.90
14357;DHT22;7262;48.764;9.166;2023-02-11T10:56:39;7.70;99.90
14357;DHT22;7262;48.764;9.166;2023-02-11T10:59:13;7.40;99.90
14357;DHT22;7262;48.764;9.166;2023-02-11T11:01:44;7.50;99.90
14357;DHT22;7262;48.764;9.166;2023-02-11T11:07:08;7.60;99.90
14357;DHT22;7262;48.764;9.166;2023-02-11T11:09:42;7.80;99.90
14357;DHT22;7262;48.764;9.166;2023-02-11T11:12:22;7.90;99.90
14357;DHT22;7262;48.764;9.166;2023-02-11T11:14:58;7.90;99.90
14357;DHT22;7262;48.764;9.166;2023-02-11T11:17:26;8.10;99.90
14357;DHT22;7262;48.764;9.166;2023-02-11T11:20:00;8.20;99.90
14357;DHT22;7262;48.764;9.166;2023-02-11T11:22:39;8.30;99.90
14357;DHT22;7262;48.764;9.166;2023-02-11T11:25:19;8.80;99.90
14357;DHT22;7262;48.764;9.166;2023-02-11T11:27:47;10.00;99.90
14357;DHT22;7262;48.764;9.166;2023-02-11T11:30:18;11.10;99.90
14357;DHT22;7262;48.764;9.166;2023-02-11T11:32:45;11.90;99.90
14357;DHT22;7262;48.764;9.166;2023-02-11T11:35:20;13.10;99.90
14357;DHT22;7262;48.764;9.166;2023-02-11T11:37:51;14.30;99.90
14357;DHT22;7262;48.764;9.166;2023-02-11T11:40:23;14.80;99.90
14357;DHT22;7262;48.764;9.166;2023-02-11T11:43:14;14.30;99.90
14357;DHT22;7262;48.764;9.166;2023-02-11T11:45:53;14.10;99.90
14357;DHT22;7262;48.764;9.166;2023-02-11T11:48:21;14.80;99.90
14357;DHT22;7262;48.764;9.166;2023-02-11T11:50:51;14.10;99.90
14357;DHT22;7262;48.764;9.166;2023-02-11T11:53:19;14.60;99.90
14357;DHT22;7262;48.764;9.166;2023-02-11T11:55:50;14.70;99.90
14357;DHT22;7262;48.764;9.166;2023-02-11T11:58:20;14.70;99.90
14357;DHT22;7262;48.764;9.166;2023-02-11T12:00:50;14.90;99.90
14357;DHT22;7262;48.764;9.166;2023-02-11T12:06:09;15.30;99.90
14357;DHT22;7262;48.764;9.166;2023-02-11T12:08:41;16.30;99.90
14357;DHT22;7262;48.764;9.166;2023-02-11T12:11:11;15.70;99.90
14357;DHT22;7262;48.764;9.166;2023-02-11T12:13:50;14.60;99.90
14357;DHT22;7262;48.764;9.166;2023-02-11T12:16:24;13.60;99.90
14357;DHT22;7262;48.764;9.166;2023-02-11T12:21:39;14.10;99.90
14357;DHT22;7262;48.764;9.166;2023-02-11T12:24:15;12.80;99.90
14357;DHT22;7262;48.764;9.166;2023-02-11T12:26:47;13.30;99.90
14357;DHT22;7262;48.764;9.166;2023-02-11T12:29:18;14.40;99.90
14357;DHT22;7262;48.764;9.166;2023-02-11T12:31:51;14.30;99.90
14357;DHT22;7262;48.764;9.166;2023-02-11T12:40:02;13.90;99.90
14357;DHT22;7262;48.764;9.166;2023-02-11T12:49:21;11.70;99.90
14357;DHT22;7262;48.764;9.166;2023-02-11T12:52:11;11.20;99.90
14357;DHT22;7262;48.764;9.166;2023-02-11T12:54:45;11.10;99.90
14357;DHT22;7262;48.764;9.166;2023-02-11T12:57:23;11.10;99.90
14357;DHT22;7262;48.764;9.166;2023-02-11T12:59:57;11.10;99.90
14357;DHT22;7262;48.764;9.166;2023-02-11T13:02:27;11.00;99.90
14357;DHT22;7262;48.764;9.166;2023-02-11T13:04:59;10.80;99.90
14357;DHT22;7262;48.764;9.166;2023-02-11T13:07:28;11.30;99.90
14357;DHT22;7262;48.764;9.166;2023-02-11T13:09:57;12.10;99.90
14357;DHT22;7262;48.764;9.166;2023-02-11T13:12:28;13.00;99.90
14357;DHT22;7262;48.764;9.166;2023-02-11T13:15:13;13.90;99.90
14357;DHT22;7262;48.764;9.166;2023-02-11T13:17:43;14.60;99.90
14357;DHT22;7262;48.764;9.166;2023-02-11T13:20:17;14.00;99.90
14357;DHT22;7262;48.764;9.166;2023-02-11T13:22:48;14.10;99.90
14357;DHT22;7262;48.764;9.166;2023-02-11T13:25:18;15.30;99.90
14357;DHT22;7262;48.764;9.166;2023-02-11T13:27:52;15.70;99.90
14357;DHT22;7262;48.764;9.166;2023-02-11T13:30:24;15.80;99.90
14357;DHT22;7262;48.764;9.166;2023-02-11T13:33:03;16.00;99.90
14357;DHT22;7262;48.764;9.166;2023-02-11T13:35:32;14.80;99.90
14357;DHT22;7262;48.764;9.166;2023-02-11T13:37:59;14.00;99.90
14357;DHT22;7262;48.764;9.166;2023-02-11T13:40:27;12.70;99.90
14357;DHT22;7262;48.764;9.166;2023-02-11T13:42:59;12.00;99.90
14357;DHT22;7262;48.764;9.166;2023-02-11T13:45:29;11.30;99.90
14357;DHT22;7262;48.764;9.166;2023-02-11T13:47:57;10.90;99.90
14357;DHT22;7262;48.764;9.166;2023-02-11T13:50:26;10.80;99.90
14357;DHT22;7262;48.764;9.166;2023-02-11T13:52:57;10.70;99.90
14357;DHT22;7262;48.764;9.166;2023-02-11T13:55:24;11.10;99.90
14357;DHT22;7262;48.764;9.166;2023-02-11T14:03:29;13.50;99.90
14357;DHT22;7262;48.764;9.166;2023-02-11T14:06:17;14.30;99.90
14357;DHT22;7262;48.764;9.166;2023-02-11T14:11:50;15.60;99.90
14357;DHT22;7262;48.764;9.166;2023-02-11T14:14:20;15.40;99.90
14357;DHT22;7262;48.764;9.166;2023-02-11T14:19:53;15.60;99.90
14357;DHT22;7262;48.764;9.166;2023-02-11T14:22:21;15.40;99.90
14357;DHT22;7262;48.764;9.166;2023-02-11T14:24:52;13.70;99.90
14357;DHT22;7262;48.764;9.166;2023-02-11T14:27:22;14.10;99.90
14357;DHT22;7262;48.764;9.166;2023-02-11T14:29:58;15.10;99.90
14357;DHT22;7262;48.764;9.166;2023-02-11T14:32:32;15.60;99.90
14357;DHT22;7262;48.764;9.166;2023-02-11T14:35:05;15.50;99.90
14357;DHT22;7262;48.764;9.166;2023-02-11T14:37:36;15.70;99.90
14357;DHT22;7262;48.764;9.166;2023-02-11T14:40:20;15.60;99.90
14357;DHT22;7262;48.764;9.166;2023-02-11T14:42:52;15.50;99.90
14357;DHT22;7262;48.764;9.166;2023-02-11T14:45:21;15.40;99.90
14357;DHT22;7262;48.764;9.166;2023-02-11T14:47:50;16.30;99.90
14357;DHT22;7262;48.764;9.166;2023-02-11T14:50:21;16.40;99.90
14357;DHT22;7262;48.764;9.166;2023-02-11T14:52:50;16.30;99.90
14357;DHT22;7262;48.764;9.166;2023-02-11T14:55:24;16.10;99.90
14357;DHT22;7262;48.764;9.166;2023-02-11T14:58:06;16.20;99.90
14357;DHT22;7262;48.764;9.166;2023-02-11T15:00:33;15.50;99.90
14357;DHT22;7262;48.764;9.166;2023-02-11T15:03:00;14.40;99.90
14357;DHT22;7262;48.764;9.166;2023-02-11T15:05:29;13.50;99.90
14357;DHT22;7262;48.764;9.166;2023-02-11T15:07:57;13.10;99.90
14357;DHT22;7262;48.764;9.166;2023-02-11T15:10:27;13.20;99.90
14357;DHT22;7262;48.764;9.166;2023-02-11T15:12:54;13.50;99.90
14357;DHT22;7262;48.764;9.166;2023-02-11T15:15:21;14.20;99.90
14357;DHT22;7262;48.764;9.166;2023-02-11T15:17:48;14.60;99.90
14357;DHT22;7262;48.764;9.166;2023-02-11T15:20:17;13.80;99.90
14357;DHT22;7262;48.764;9.166;2023-02-11T15:22:46;12.90;99.90
14357;DHT22;7262;48.764;9.166;2023-02-11T15:25:15;12.40;99.90
14357;DHT22;7262;48.764;9.166;2023-02-11T15:27:47;11.60;99.90
14357;DHT22;7262;48.764;9.166;2023-02-11T15:30:32;11.50;99.90
14357;DHT22;7262;48.764;9.166;2023-02-11T15:33:00;11.80;99.90
14357;DHT22;7262;48.764;9.166;2023-02-11T15:35:30;11.70;99.90
14357;DHT22;7262;48.764;9.166;2023-02-11T15:38:02;11.00;99.90
14357;DHT22;7262;48.764;9.166;2023-02-11T15:40:30;10.40;99.90
14357;DHT22;7262;48.764;9.166;2023-02-11T15:42:58;9.60;99.90
14357;DHT22;7262;48.764;9.166;2023-02-11T15:45:28;9.10;99.90
14357;DHT22;7262;48.764;9.166;2023-02-11T15:48:00;8.90;99.90
14357;DHT22;7262;48.764;9.166;2023-02-11T15:50:32;8.60;99.90
14357;DHT22;7262;48.764;9.166;2023-02-11T15:53:13;8.50;99.90
14357;DHT22;7262;48.764;9.166;2023-02-11T15:55:45;8.30;99.90
14357;DHT22;7262;48.764;9.166;2023-02-11T15:58:12;8.30;99.90
14357;DHT22;7262;48.764;9.166;2023-02-11T16:00:44;8.10;99.90
14357;DHT22;7262;48.764;9.166;2023-02-11T16:03:17;8.00;99.90
14357;DHT22;7262;48.764;9.166;2023-02-11T16:05:45;8.00;99.90
14357;DHT22;7262;48.764;9.166;2023-02-11T16:08:26;7.90;99.90
14357;DHT22;7262;48.764;9.166;2023-02-11T16:10:55;7.90;99.90
14357;DHT22;7262;48.764;9.166;2023-02-11T16:13:27;7.80;99.90
14357;DHT22;7262;48.764;9.166;2023-02-11T16:15:58;7.70;99.90
14357;DHT22;7262;48.764;9.166;2023-02-11T16:18:28;7.70;99.90
14357;DHT22;7262;48.764;9.166;2023-02-11T16:20:59;7.70;99.90
14357;DHT22;7262;48.764;9.166;2023-02-11T16:23:33;7.60;99.90
14357;DHT22;7262;48.764;9.166;2023-02-11T16:26:19;7.60;99.90
14357;DHT22;7262;48.764;9.166;2023-02-11T16:28:48;7.70;99.90
14357;DHT22;7262;48.764;9.166;2023-02-11T16:31:15;7.60;99.90
14357;DHT22;7262;48.764;9.166;2023-02-11T16:33:44;7.60;99.90
14357;DHT22;7262;48.764;9.166;2023-02-11T16:36:11;7.50;99.90
14357;DHT22;7262;48.764;9.166;2023-02-11T16:38:41;7.50;99.90
14357;DHT22;7262;48.764;9.166;2023-02-11T16:41:08;7.40;99.90
14357;DHT22;7262;48.764;9.166;2023-02-11T16:43:36;7.50;99.90
14357;DHT22;7262;48.764;9.166;2023-02-11T16:46:04;7.40;99.90